sensor_id;sensor_type;location;lat;lon;timestamp;pressure;altitude;pressure_sealevel;temperature;humidity
30897;BME280;64229;52.246;21.054;2023-03-18T00:01:23;101101.94;;;3.69;51.67
30897;BME280;64229;52.246;21.054;2023-03-18T00:03:48;101106.00;;;3.65;51.84
30897;BME280;64229;52.246;21.054;2023-03-18T00:06:16;101101.94;;;3.62;52.23
30897;BME280;64229;52.246;21.054;2023-03-18T00:08:44;101097.25;;;3.58;51.78
30897;BME280;64229;52.246;21.054;2023-03-18T00:11:11;101094.00;;;3.56;51.91
30897;BME280;64229;52.246;21.054;2023-03-18T00:13:37;101100.03;;;3.49;52.23
30897;BME280;64229;52.246;21.054;2023-03-18T00:16:05;101088.31;;;3.52;52.22
30897;BME280;64229;52.246;21.054;2023-03-18T00:18:31;101098.88;;;3.52;51.91
30897;BME280;64229;52.246;21.054;2023-03-18T00:20:59;101099.25;;;3.49;52.19
30897;BME280;64229;52.246;21.054;2023-03-18T00:23:25;101091.31;;;3.49;51.97
30897;BME280;64229;52.246;21.054;2023-03-18T00:25:54;101090.50;;;3.48;51.89
30897;BME280;64229;52.246;21.054;2023-03-18T00:28:21;101089.91;;;3.46;52.50
30897;BME280;64229;52.246;21.054;2023-03-18T00:30:47;101087.25;;;3.46;51.65
30897;BME280;64229;52.246;21.054;2023-03-18T00:33:14;101085.63;;;3.45;51.93
30897;BME280;64229;52.246;21.054;2023-03-18T00:35:40;101087.47;;;3.45;52.12
30897;BME280;64229;52.246;21.054;2023-03-18T00:38:07;101079.75;;;3.43;52.20
30897;BME280;64229;52.246;21.054;2023-03-18T00:40:35;101077.91;;;3.44;52.12
30897;BME280;64229;52.246;21.054;2023-03-18T00:43:22;101078.31;;;3.41;52.28
30897;BME280;64229;52.246;21.054;2023-03-18T00:45:54;101068.97;;;3.38;52.06
30897;BME280;64229;52.246;21.054;2023-03-18T00:48:20;101075.44;;;3.36;52.17
30897;BME280;64229;52.246;21.054;2023-03-18T00:50:46;101074.84;;;3.34;52.32
30897;BME280;64229;52.246;21.054;2023-03-18T00:53:12;101066.09;;;3.33;51.96
30897;BME280;64229;52.246;21.054;2023-03-18T00:55:39;101068.50;;;3.28;52.18
30897;BME280;64229;52.246;21.054;2023-03-18T00:58:04;101064.25;;;3.27;52.26
30897;BME280;64229;52.246;21.054;2023-03-18T01:00:30;101065.88;;;3.28;52.36
30897;BME280;64229;52.246;21.054;2023-03-18T01:02:55;101057.97;;;3.28;52.36
30897;BME280;64229;52.246;21.054;2023-03-18T01:05:21;101048.03;;;3.30;52.34
30897;BME280;64229;52.246;21.054;2023-03-18T01:07:47;101053.91;;;3.26;52.14
30897;BME280;64229;52.246;21.054;2023-03-18T01:10:13;101049.44;;;3.26;51.87
30897;BME280;64229;52.246;21.054;2023-03-18T01:12:41;101042.72;;;3.24;52.14
30897;BME280;64229;52.246;21.054;2023-03-18T01:15:09;101047.41;;;3.22;51.64
30897;BME280;64229;52.246;21.054;2023-03-18T01:17:37;101039.06;;;3.18;51.68
30897;BME280;64229;52.246;21.054;2023-03-18T01:20:03;101038.47;;;3.23;51.58
30897;BME280;64229;52.246;21.054;2023-03-18T01:22:28;101033.78;;;3.18;51.54
30897;BME280;64229;52.246;21.054;2023-03-18T01:24:54;101031.34;;;3.10;51.52
30897;BME280;64229;52.246;21.054;2023-03-18T01:27:21;101037.22;;;3.18;51.36
30897;BME280;64229;52.246;21.054;2023-03-18T01:29:47;101023.03;;;3.13;51.71
30897;BME280;64229;52.246;21.054;2023-03-18T01:32:13;101029.50;;;3.10;51.42
30897;BME280;64229;52.246;21.054;2023-03-18T01:34:38;101015.06;;;3.06;51.20
30897;BME280;64229;52.246;21.054;2023-03-18T01:37:06;101021.59;;;3.17;51.73
30897;BME280;64229;52.246;21.054;2023-03-18T01:39:31;101021.59;;;3.17;51.67
30897;BME280;64229;52.246;21.054;2023-03-18T01:41:58;101028.50;;;3.11;51.54
30897;BME280;64229;52.246;21.054;2023-03-18T01:44:24;101016.91;;;3.06;51.38
30897;BME280;64229;52.246;21.054;2023-03-18T01:46:51;101011.03;;;3.10;51.43
30897;BME280;64229;52.246;21.054;2023-03-18T01:49:36;101027.47;;;3.12;51.43
30897;BME280;64229;52.246;21.054;2023-03-18T01:54:45;101024.41;;;3.02;51.21
30897;BME280;64229;52.246;21.054;2023-03-18T01:57:11;101013.25;;;3.00;51.38
30897;BME280;64229;52.246;21.054;2023-03-18T01:59:40;101011.41;;;3.01;51.28
30897;BME280;64229;52.246;21.054;2023-03-18T02:02:09;101024.41;;;3.02;51.13
30897;BME280;64229;52.246;21.054;2023-03-18T02:04:39;101016.25;;;2.97;51.46
30897;BME280;64229;52.246;21.054;2023-03-18T02:07:06;101022.38;;;3.04;51.09
30897;BME280;64229;52.246;21.054;2023-03-18T02:09:37;101026.84;;;3.04;51.28
30897;BME280;64229;52.246;21.054;2023-03-18T02:12:04;101021.56;;;3.04;50.97
30897;BME280;64229;52.246;21.054;2023-03-18T02:14:30;101010.59;;;3.00;51.73
30897;BME280;64229;52.246;21.054;2023-03-18T02:17:07;101017.06;;;2.98;51.59
30897;BME280;64229;52.246;21.054;2023-03-18T02:20:14;101025.63;;;3.00;51.79
30897;BME280;64229;52.246;21.054;2023-03-18T02:22:44;101022.56;;;3.03;51.76
30897;BME280;64229;52.246;21.054;2023-03-18T02:28:17;101010.97;;;2.97;51.73
30897;BME280;64229;52.246;21.054;2023-03-18T02:30:46;101007.72;;;2.95;52.17
30897;BME280;64229;52.246;21.054;2023-03-18T02:33:14;101008.34;;;2.97;52.16
30897;BME280;64229;52.246;21.054;2023-03-18T02:35:43;100994.34;;;2.97;52.09
30897;BME280;64229;52.246;21.054;2023-03-18T02:38:09;100997.19;;;2.95;52.00
30897;BME280;64229;52.246;21.054;2023-03-18T02:40:39;101003.47;;;2.94;52.29
30897;BME280;64229;52.246;21.054;2023-03-18T02:43:27;101004.28;;;2.95;52.56
30897;BME280;64229;52.246;21.054;2023-03-18T02:46:05;100998.41;;;2.93;52.08
30897;BME280;64229;52.246;21.054;2023-03-18T02:48:36;100988.00;;;2.84;52.36
30897;BME280;64229;52.246;21.054;2023-03-18T02:51:04;100995.34;;;2.96;52.40
30897;BME280;64229;52.246;21.054;2023-03-18T02:53:30;101004.06;;;2.96;52.06
30897;BME280;64229;52.246;21.054;2023-03-18T02:55:55;101004.09;;;3.03;51.91
30897;BME280;64229;52.246;21.054;2023-03-18T02:58:21;101006.72;;;2.96;52.22
30897;BME280;64229;52.246;21.054;2023-03-18T03:00:47;100988.84;;;2.92;52.25
30897;BME280;64229;52.246;21.054;2023-03-18T03:03:12;100978.28;;;2.85;52.55
30897;BME280;64229;52.246;21.054;2023-03-18T03:05:37;100991.25;;;2.86;52.34
30897;BME280;64229;52.246;21.054;2023-03-18T03:08:03;100995.53;;;2.87;52.56
30897;BME280;64229;52.246;21.054;2023-03-18T03:10:29;100985.59;;;2.89;52.39
30897;BME280;64229;52.246;21.054;2023-03-18T03:12:55;100989.88;;;2.90;52.18
30897;BME280;64229;52.246;21.054;2023-03-18T03:15:21;100976.69;;;2.90;52.09
30897;BME280;64229;52.246;21.054;2023-03-18T03:17:46;100984.34;;;2.85;51.76
30897;BME280;64229;52.246;21.054;2023-03-18T03:20:13;100980.91;;;2.85;51.88
30897;BME280;64229;52.246;21.054;2023-03-18T03:22:40;100989.44;;;2.87;51.90
30897;BME280;64229;52.246;21.054;2023-03-18T03:25:07;100991.47;;;2.85;51.64
30897;BME280;64229;52.246;21.054;2023-03-18T03:27:33;100985.16;;;2.86;51.39
30897;BME280;64229;52.246;21.054;2023-03-18T03:29:58;100982.53;;;2.86;51.29
30897;BME280;64229;52.246;21.054;2023-03-18T03:32:24;100979.91;;;2.86;51.64
30897;BME280;64229;52.246;21.054;2023-03-18T03:34:49;100975.44;;;2.80;51.19
30897;BME280;64229;52.246;21.054;2023-03-18T03:37:15;100980.91;;;2.85;51.16
30897;BME280;64229;52.246;21.054;2023-03-18T03:39:41;100979.06;;;2.79;51.10
30897;BME280;64229;52.246;21.054;2023-03-18T03:42:07;100978.06;;;2.80;51.29
30897;BME280;64229;52.246;21.054;2023-03-18T03:44:32;100981.72;;;2.79;51.03
30897;BME280;64229;52.246;21.054;2023-03-18T03:46:57;100979.28;;;2.77;51.01
30897;BME280;64229;52.246;21.054;2023-03-18T03:49:23;100981.09;;;2.77;50.85
30897;BME280;64229;52.246;21.054;2023-03-18T03:51:49;100981.69;;;2.72;50.85
30897;BME280;64229;52.246;21.054;2023-03-18T03:54:14;100980.47;;;2.75;50.96
30897;BME280;64229;52.246;21.054;2023-03-18T03:56:41;100974.56;;;2.73;50.75
30897;BME280;64229;52.246;21.054;2023-03-18T03:59:07;100984.50;;;2.71;50.68
30897;BME280;64229;52.246;21.054;2023-03-18T04:01:34;100974.38;;;2.74;50.79
30897;BME280;64229;52.246;21.054;2023-03-18T04:04:00;100983.09;;;2.68;50.93
30897;BME280;64229;52.246;21.054;2023-03-18T04:06:27;100993.44;;;2.70;51.05
30897;BME280;64229;52.246;21.054;2023-03-18T04:08:52;100991.81;;;2.69;50.94
30897;BME280;64229;52.246;21.054;2023-03-18T04:11:18;100996.47;;;2.67;51.12
30897;BME280;64229;52.246;21.054;2023-03-18T04:13:44;100978.94;;;2.52;50.87
30897;BME280;64229;52.246;21.054;2023-03-18T04:16:10;100993.38;;;2.56;51.40
30897;BME280;64229;52.246;21.054;2023-03-18T04:18:36;100992.56;;;2.56;51.32
30897;BME280;64229;52.246;21.054;2023-03-18T04:21:01;100991.53;;;2.57;51.33
30897;BME280;64229;52.246;21.054;2023-03-18T04:23:27;101002.28;;;2.55;51.21
30897;BME280;64229;52.246;21.054;2023-03-18T04:25:52;101000.84;;;2.53;51.35
30897;BME280;64229;52.246;21.054;2023-03-18T04:28:18;101001.22;;;2.50;51.42
30897;BME280;64229;52.246;21.054;2023-03-18T04:30:43;101007.31;;;2.50;51.46
30897;BME280;64229;52.246;21.054;2023-03-18T04:33:08;100994.34;;;2.49;51.40
30897;BME280;64229;52.246;21.054;2023-03-18T04:35:34;100991.84;;;2.41;51.46
30897;BME280;64229;52.246;21.054;2023-03-18T04:38:00;101014.59;;;2.48;51.63
30897;BME280;64229;52.246;21.054;2023-03-18T04:40:25;101008.31;;;2.49;51.61
30897;BME280;64229;52.246;21.054;2023-03-18T04:42:51;100998.19;;;2.46;51.51
30897;BME280;64229;52.246;21.054;2023-03-18T04:45:16;101010.56;;;2.52;51.64
30897;BME280;64229;52.246;21.054;2023-03-18T04:47:43;101004.88;;;2.49;51.61
30897;BME280;64229;52.246;21.054;2023-03-18T04:50:09;100998.75;;;2.42;51.69
30897;BME280;64229;52.246;21.054;2023-03-18T04:52:37;101010.53;;;2.46;51.64
30897;BME280;64229;52.246;21.054;2023-03-18T04:55:04;101018.88;;;2.49;51.54
30897;BME280;64229;52.246;21.054;2023-03-18T04:57:30;101007.94;;;2.52;51.56
30897;BME280;64229;52.246;21.054;2023-03-18T04:59:56;101013.44;;;2.57;51.65
30897;BME280;64229;52.246;21.054;2023-03-18T05:02:22;101008.06;;;2.44;51.49
30897;BME280;64229;52.246;21.054;2023-03-18T05:04:48;101012.50;;;2.37;52.02
30897;BME280;64229;52.246;21.054;2023-03-18T05:07:14;101006.44;;;2.37;52.06
30897;BME280;64229;52.246;21.054;2023-03-18T05:09:40;101001.72;;;2.32;52.31
30897;BME280;64229;52.246;21.054;2023-03-18T05:12:10;101002.53;;;2.32;52.38
30897;BME280;64229;52.246;21.054;2023-03-18T05:14:37;100996.25;;;2.33;52.64
30897;BME280;64229;52.246;21.054;2023-03-18T05:17:03;100989.34;;;2.32;52.53
30897;BME280;64229;52.246;21.054;2023-03-18T05:19:28;100991.63;;;2.36;52.88
30897;BME280;64229;52.246;21.054;2023-03-18T05:21:54;101010.09;;;2.42;52.80
30897;BME280;64229;52.246;21.054;2023-03-18T05:24:21;101007.47;;;2.42;52.48
30897;BME280;64229;52.246;21.054;2023-03-18T05:26:46;100993.47;;;2.42;52.60
30897;BME280;64229;52.246;21.054;2023-03-18T05:29:12;101007.50;;;2.49;52.60
30897;BME280;64229;52.246;21.054;2023-03-18T05:31:38;101021.28;;;2.51;52.82
30897;BME280;64229;52.246;21.054;2023-03-18T05:34:03;101005.09;;;2.54;52.74
30897;BME280;64229;52.246;21.054;2023-03-18T05:36:31;101001.66;;;2.53;52.66
30897;BME280;64229;52.246;21.054;2023-03-18T05:38:57;101008.78;;;2.59;52.77
30897;BME280;64229;52.246;21.054;2023-03-18T05:41:23;100998.84;;;2.61;52.67
30897;BME280;64229;52.246;21.054;2023-03-18T05:43:49;100988.72;;;2.58;52.88
30897;BME280;64229;52.246;21.054;2023-03-18T05:46:14;100993.19;;;2.65;52.97
30897;BME280;64229;52.246;21.054;2023-03-18T05:48:40;100988.13;;;2.63;52.26
30897;BME280;64229;52.246;21.054;2023-03-18T05:51:06;100993.63;;;2.68;52.25
30897;BME280;64229;52.246;21.054;2023-03-18T05:53:32;100996.06;;;2.76;52.21
30897;BME280;64229;52.246;21.054;2023-03-18T05:55:58;100996.31;;;2.81;51.41
30897;BME280;64229;52.246;21.054;2023-03-18T05:58:24;100994.44;;;2.75;51.10
30897;BME280;64229;52.246;21.054;2023-03-18T06:00:50;100995.31;;;2.82;51.19
30897;BME280;64229;52.246;21.054;2023-03-18T06:03:16;100993.72;;;2.88;51.07
30897;BME280;64229;52.246;21.054;2023-03-18T06:05:42;100992.34;;;2.99;50.56
30897;BME280;64229;52.246;21.054;2023-03-18T06:08:07;100995.19;;;3.04;50.47
30897;BME280;64229;52.246;21.054;2023-03-18T06:10:33;100996.22;;;3.09;50.25
30897;BME280;64229;52.246;21.054;2023-03-18T06:12:59;100987.50;;;3.09;49.97
30897;BME280;64229;52.246;21.054;2023-03-18T06:15:24;100977.78;;;3.16;49.80
30897;BME280;64229;52.246;21.054;2023-03-18T06:17:50;100990.41;;;3.34;49.52
30897;BME280;64229;52.246;21.054;2023-03-18T06:20:16;100987.34;;;3.37;48.83
30897;BME280;64229;52.246;21.054;2023-03-18T06:22:44;100989.22;;;3.43;48.71
30897;BME280;64229;52.246;21.054;2023-03-18T06:25:14;100990.03;;;3.43;48.88
30897;BME280;64229;52.246;21.054;2023-03-18T06:27:40;100981.72;;;3.53;49.12
30897;BME280;64229;52.246;21.054;2023-03-18T06:30:06;100974.81;;;3.59;48.50
30897;BME280;64229;52.246;21.054;2023-03-18T06:32:32;100993.09;;;3.73;48.05
30897;BME280;64229;52.246;21.054;2023-03-18T06:34:58;100979.69;;;3.82;47.80
30897;BME280;64229;52.246;21.054;2023-03-18T06:37:24;100993.91;;;3.87;47.32
30897;BME280;64229;52.246;21.054;2023-03-18T06:39:49;100989.44;;;3.88;47.30
30897;BME280;64229;52.246;21.054;2023-03-18T06:42:15;100994.75;;;3.94;47.42
30897;BME280;64229;52.246;21.054;2023-03-18T06:44:40;100998.78;;;4.10;47.37
30897;BME280;64229;52.246;21.054;2023-03-18T06:47:10;100984.94;;;4.15;47.10
30897;BME280;64229;52.246;21.054;2023-03-18T06:49:36;100986.38;;;4.11;46.28
30897;BME280;64229;52.246;21.054;2023-03-18T06:52:01;101001.19;;;4.25;46.06
30897;BME280;64229;52.246;21.054;2023-03-18T06:54:27;100995.31;;;4.36;45.95
30897;BME280;64229;52.246;21.054;2023-03-18T06:56:53;100977.78;;;4.42;46.26
30897;BME280;64229;52.246;21.054;2023-03-18T06:59:18;100991.41;;;4.45;45.39
30897;BME280;64229;52.246;21.054;2023-03-18T07:01:45;100995.66;;;4.59;45.37
30897;BME280;64229;52.246;21.054;2023-03-18T07:04:11;101001.66;;;4.86;44.91
30897;BME280;64229;52.246;21.054;2023-03-18T07:06:36;100991.28;;;4.85;44.30
30897;BME280;64229;52.246;21.054;2023-03-18T07:09:02;100993.38;;;4.70;44.18
30897;BME280;64229;52.246;21.054;2023-03-18T07:11:28;100982.97;;;4.75;44.31
30897;BME280;64229;52.246;21.054;2023-03-18T07:13:54;100996.34;;;4.86;43.83
30897;BME280;64229;52.246;21.054;2023-03-18T07:16:19;100984.53;;;4.89;43.43
30897;BME280;64229;52.246;21.054;2023-03-18T07:18:45;100989.44;;;4.85;43.43
30897;BME280;64229;52.246;21.054;2023-03-18T07:21:10;100997.94;;;5.01;43.58
30897;BME280;64229;52.246;21.054;2023-03-18T07:23:36;100996.47;;;5.11;42.88
30897;BME280;64229;52.246;21.054;2023-03-18T07:26:03;100994.19;;;5.15;42.55
30897;BME280;64229;52.246;21.054;2023-03-18T07:28:29;100994.69;;;5.37;42.37
30897;BME280;64229;52.246;21.054;2023-03-18T07:30:54;100994.94;;;5.60;42.33
30897;BME280;64229;52.246;21.054;2023-03-18T07:33:20;100999.31;;;5.73;41.65
30897;BME280;64229;52.246;21.054;2023-03-18T07:35:46;101001.66;;;5.88;41.61
30897;BME280;64229;52.246;21.054;2023-03-18T07:38:12;101010.34;;;6.01;41.74
30897;BME280;64229;52.246;21.054;2023-03-18T07:40:38;101007.97;;;5.62;41.29
30897;BME280;64229;52.246;21.054;2023-03-18T07:43:04;101005.38;;;5.55;41.42
30897;BME280;64229;52.246;21.054;2023-03-18T07:45:30;100995.19;;;5.52;41.00
30897;BME280;64229;52.246;21.054;2023-03-18T07:47:56;101008.19;;;5.60;41.42
30897;BME280;64229;52.246;21.054;2023-03-18T07:50:21;101008.81;;;5.87;41.31
30897;BME280;64229;52.246;21.054;2023-03-18T07:52:47;101010.22;;;6.15;41.33
30897;BME280;64229;52.246;21.054;2023-03-18T07:55:13;101016.25;;;6.47;40.90
30897;BME280;64229;52.246;21.054;2023-03-18T07:57:38;100995.63;;;6.49;39.58
30897;BME280;64229;52.246;21.054;2023-03-18T08:00:06;100999.91;;;6.50;39.54
30897;BME280;64229;52.246;21.054;2023-03-18T08:02:32;101013.28;;;6.36;39.64
30897;BME280;64229;52.246;21.054;2023-03-18T08:04:58;101010.00;;;6.41;39.87
30897;BME280;64229;52.246;21.054;2023-03-18T08:07:23;101002.47;;;6.38;39.50
30897;BME280;64229;52.246;21.054;2023-03-18T08:09:49;101000.19;;;6.42;39.50
30897;BME280;64229;52.246;21.054;2023-03-18T08:12:15;100993.72;;;6.56;39.95
30897;BME280;64229;52.246;21.054;2023-03-18T08:14:41;100987.59;;;6.55;39.83
30897;BME280;64229;52.246;21.054;2023-03-18T08:17:07;100996.88;;;6.83;39.81
30897;BME280;64229;52.246;21.054;2023-03-18T08:19:33;100991.63;;;7.13;39.17
30897;BME280;64229;52.246;21.054;2023-03-18T08:21:58;101001.03;;;7.39;38.79
30897;BME280;64229;52.246;21.054;2023-03-18T08:24:24;100996.00;;;7.49;38.31
30897;BME280;64229;52.246;21.054;2023-03-18T08:26:49;100989.69;;;9.36;36.11
30897;BME280;64229;52.246;21.054;2023-03-18T08:29:14;100985.97;;;11.25;31.59
30897;BME280;64229;52.246;21.054;2023-03-18T08:31:40;100994.56;;;11.81;30.33
30897;BME280;64229;52.246;21.054;2023-03-18T08:34:06;100986.53;;;11.81;30.15
30897;BME280;64229;52.246;21.054;2023-03-18T08:36:31;101001.00;;;10.60;30.86
30897;BME280;64229;52.246;21.054;2023-03-18T08:38:56;100991.06;;;10.00;31.93
30897;BME280;64229;52.246;21.054;2023-03-18T08:41:22;100997.56;;;11.63;30.80
30897;BME280;64229;52.246;21.054;2023-03-18T08:43:50;100994.34;;;11.61;29.91
30897;BME280;64229;52.246;21.054;2023-03-18T08:46:17;100967.81;;;10.18;30.97
30897;BME280;64229;52.246;21.054;2023-03-18T08:48:43;100981.66;;;9.98;32.02
30897;BME280;64229;52.246;21.054;2023-03-18T08:51:08;100985.47;;;10.02;32.16
30897;BME280;64229;52.246;21.054;2023-03-18T08:53:35;100969.38;;;9.97;31.79
30897;BME280;64229;52.246;21.054;2023-03-18T08:56:01;100971.63;;;10.60;31.35
30897;BME280;64229;52.246;21.054;2023-03-18T08:58:28;100975.44;;;10.86;31.64
30897;BME280;64229;52.246;21.054;2023-03-18T09:00:54;100978.81;;;10.60;30.64
30897;BME280;64229;52.246;21.054;2023-03-18T09:03:20;100967.34;;;10.37;31.08
30897;BME280;64229;52.246;21.054;2023-03-18T09:05:49;100971.81;;;11.24;30.29
30897;BME280;64229;52.246;21.054;2023-03-18T09:08:14;100968.13;;;10.38;31.25
30897;BME280;64229;52.246;21.054;2023-03-18T09:10:39;100950.06;;;10.89;30.13
30897;BME280;64229;52.246;21.054;2023-03-18T09:13:05;100967.44;;;10.26;30.54
30897;BME280;64229;52.246;21.054;2023-03-18T09:15:32;100960.63;;;10.79;30.49
30897;BME280;64229;52.246;21.054;2023-03-18T09:17:58;100951.28;;;10.54;30.66
30897;BME280;64229;52.246;21.054;2023-03-18T09:20:24;100949.16;;;11.59;29.80
30897;BME280;64229;52.246;21.054;2023-03-18T09:22:51;100959.44;;;12.57;28.05
30897;BME280;64229;52.246;21.054;2023-03-18T09:25:17;100957.69;;;13.03;26.95
30897;BME280;64229;52.246;21.054;2023-03-18T09:27:42;100958.06;;;13.78;26.68
30897;BME280;64229;52.246;21.054;2023-03-18T09:30:09;100958.06;;;13.68;26.62
30897;BME280;64229;52.246;21.054;2023-03-18T09:32:35;100959.59;;;12.40;27.92
30897;BME280;64229;52.246;21.054;2023-03-18T09:35:01;100959.81;;;12.28;28.31
30897;BME280;64229;52.246;21.054;2023-03-18T09:37:26;100944.22;;;12.72;28.11
30897;BME280;64229;52.246;21.054;2023-03-18T09:39:51;100943.91;;;14.62;26.26
30897;BME280;64229;52.246;21.054;2023-03-18T09:45:28;100953.88;;;12.79;28.20
30897;BME280;64229;52.246;21.054;2023-03-18T09:51:20;100948.06;;;13.12;28.08
30897;BME280;64229;52.246;21.054;2023-03-18T09:53:56;100944.81;;;10.72;30.70
30897;BME280;64229;52.246;21.054;2023-03-18T09:56:27;100941.41;;;10.33;31.93
30897;BME280;64229;52.246;21.054;2023-03-18T10:01:37;100950.06;;;11.16;31.12
30897;BME280;64229;52.246;21.054;2023-03-18T10:04:16;100938.53;;;10.61;31.44
30897;BME280;64229;52.246;21.054;2023-03-18T10:06:45;100940.34;;;10.34;30.67
30897;BME280;64229;52.246;21.054;2023-03-18T10:09:38;100933.25;;;9.22;31.63
30897;BME280;64229;52.246;21.054;2023-03-18T10:17:44;100927.97;;;9.89;31.04
30897;BME280;64229;52.246;21.054;2023-03-18T10:20:17;100910.16;;;9.78;30.92
30897;BME280;64229;52.246;21.054;2023-03-18T10:23:04;100932.56;;;9.60;31.23
30897;BME280;64229;52.246;21.054;2023-03-18T10:25:33;100916.25;;;9.40;31.12
30897;BME280;64229;52.246;21.054;2023-03-18T10:28:14;100912.44;;;9.19;31.52
30897;BME280;64229;52.246;21.054;2023-03-18T10:30:59;100914.59;;;9.05;31.93
30897;BME280;64229;52.246;21.054;2023-03-18T10:38:44;100920.41;;;9.19;33.21
30897;BME280;64229;52.246;21.054;2023-03-18T10:43:46;100912.03;;;9.44;32.15
30897;BME280;64229;52.246;21.054;2023-03-18T10:46:15;100902.75;;;9.30;31.50
30897;BME280;64229;52.246;21.054;2023-03-18T10:48:53;100903.25;;;9.26;31.41
30897;BME280;64229;52.246;21.054;2023-03-18T10:51:33;100912.44;;;9.52;31.26
30897;BME280;64229;52.246;21.054;2023-03-18T10:54:28;100898.47;;;9.62;31.00
30897;BME280;64229;52.246;21.054;2023-03-18T10:56:57;100887.72;;;9.91;31.03
30897;BME280;64229;52.246;21.054;2023-03-18T10:59:24;100888.28;;;10.14;31.24
30897;BME280;64229;52.246;21.054;2023-03-18T11:02:10;100893.13;;;10.18;30.96
30897;BME280;64229;52.246;21.054;2023-03-18T11:04:52;100891.25;;;10.57;30.70
30897;BME280;64229;52.246;21.054;2023-03-18T11:07:24;100894.66;;;10.52;30.29
30897;BME280;64229;52.246;21.054;2023-03-18T11:09:51;100889.66;;;10.17;30.60
30897;BME280;64229;52.246;21.054;2023-03-18T11:12:23;100879.25;;;10.15;30.75
30897;BME280;64229;52.246;21.054;2023-03-18T11:14:50;100887.28;;;10.37;30.70
30897;BME280;64229;52.246;21.054;2023-03-18T11:17:21;100880.25;;;10.31;30.79
30897;BME280;64229;52.246;21.054;2023-03-18T11:22:33;100874.28;;;9.85;31.56
30897;BME280;64229;52.246;21.054;2023-03-18T11:25:20;100873.75;;;10.22;31.72
30897;BME280;64229;52.246;21.054;2023-03-18T11:27:56;100865.25;;;10.47;30.82
30897;BME280;64229;52.246;21.054;2023-03-18T11:30:27;100859.38;;;10.23;30.74
30897;BME280;64229;52.246;21.054;2023-03-18T11:35:52;100863.53;;;10.63;30.51
30897;BME280;64229;52.246;21.054;2023-03-18T11:38:32;100847.03;;;10.66;30.13
30897;BME280;64229;52.246;21.054;2023-03-18T11:41:13;100861.13;;;10.61;30.43
30897;BME280;64229;52.246;21.054;2023-03-18T11:43:54;100847.66;;;10.51;30.89
30897;BME280;64229;52.246;21.054;2023-03-18T11:46:22;100851.16;;;10.79;30.87
30897;BME280;64229;52.246;21.054;2023-03-18T11:48:49;100840.78;;;10.82;29.86
30897;BME280;64229;52.246;21.054;2023-03-18T11:51:38;100848.63;;;10.94;29.60
30897;BME280;64229;52.246;21.054;2023-03-18T12:07:40;100839.44;;;11.81;30.08
30897;BME280;64229;52.246;21.054;2023-03-18T12:12:50;100837.19;;;12.20;28.94
30897;BME280;64229;52.246;21.054;2023-03-18T12:15:39;100832.19;;;12.39;29.22
30897;BME280;64229;52.246;21.054;2023-03-18T12:20:52;100840.56;;;11.53;29.43
30897;BME280;64229;52.246;21.054;2023-03-18T12:23:39;100842.63;;;11.46;29.31
30897;BME280;64229;52.246;21.054;2023-03-18T12:26:33;100844.69;;;11.01;29.79
30897;BME280;64229;52.246;21.054;2023-03-18T12:32:23;100830.50;;;10.96;30.26
30897;BME280;64229;52.246;21.054;2023-03-18T12:43:19;100820.84;;;11.59;29.84
30897;BME280;64229;52.246;21.054;2023-03-18T12:45:52;100807.50;;;10.95;30.34
30897;BME280;64229;52.246;21.054;2023-03-18T12:48:26;100811.41;;;11.14;30.86
30897;BME280;64229;52.246;21.054;2023-03-18T12:50:59;100813.84;;;11.53;30.15
30897;BME280;64229;52.246;21.054;2023-03-18T12:53:31;100810.50;;;11.36;30.24
30897;BME280;64229;52.246;21.054;2023-03-18T12:56:02;100795.94;;;11.58;30.29
30897;BME280;64229;52.246;21.054;2023-03-18T12:58:34;100806.41;;;11.60;30.00
30897;BME280;64229;52.246;21.054;2023-03-18T13:01:19;100796.88;;;11.37;30.58
30897;BME280;64229;52.246;21.054;2023-03-18T13:03:52;100800.31;;;11.75;30.26
30897;BME280;64229;52.246;21.054;2023-03-18T13:06:25;100794.25;;;11.84;29.64
30897;BME280;64229;52.246;21.054;2023-03-18T13:17:35;100780.41;;;11.55;29.82
30897;BME280;64229;52.246;21.054;2023-03-18T13:28:10;100787.97;;;11.64;29.78
30897;BME280;64229;52.246;21.054;2023-03-18T13:42:22;100786.56;;;12.03;29.13
30897;BME280;64229;52.246;21.054;2023-03-18T13:45:21;100768.66;;;12.04;29.57
30897;BME280;64229;52.246;21.054;2023-03-18T13:47:55;100778.28;;;11.57;29.47
30897;BME280;64229;52.246;21.054;2023-03-18T13:52:53;100757.91;;;11.41;30.01
30897;BME280;64229;52.246;21.054;2023-03-18T13:57:57;100760.16;;;11.59;30.24
30897;BME280;64229;52.246;21.054;2023-03-18T14:13:57;100747.75;;;11.43;31.08
30897;BME280;64229;52.246;21.054;2023-03-18T14:16:28;100750.69;;;11.42;31.06
30897;BME280;64229;52.246;21.054;2023-03-18T14:21:29;100746.88;;;11.33;31.00
30897;BME280;64229;52.246;21.054;2023-03-18T14:24:11;100739.44;;;11.40;31.36
30897;BME280;64229;52.246;21.054;2023-03-18T14:26:37;100739.78;;;11.53;31.36
30897;BME280;64229;52.246;21.054;2023-03-18T14:39:19;100736.47;;;11.31;31.20
30897;BME280;64229;52.246;21.054;2023-03-18T14:41:52;100722.56;;;11.29;31.58
30897;BME280;64229;52.246;21.054;2023-03-18T14:47:03;100721.06;;;11.48;31.44
30897;BME280;64229;52.246;21.054;2023-03-18T14:50:36;100723.47;;;11.55;31.28
30897;BME280;64229;52.246;21.054;2023-03-18T14:52:38;100722.28;;;11.30;31.17
30897;BME280;64229;52.246;21.054;2023-03-18T14:55:17;100712.88;;;11.23;31.51
30897;BME280;64229;52.246;21.054;2023-03-18T14:57:43;100715.28;;;11.24;31.52
30897;BME280;64229;52.246;21.054;2023-03-18T15:00:14;100705.41;;;11.25;31.70
30897;BME280;64229;52.246;21.054;2023-03-18T15:02:40;100718.06;;;11.40;31.71